createdAt,value
2018-08-11T00:02:18.825Z,3.23
2018-08-11T00:04:46.980Z,1.93
2018-08-11T00:07:15.178Z,1.63
2018-08-11T00:09:43.431Z,3.30
2018-08-11T00:12:11.626Z,2.50
2018-08-11T00:14:39.830Z,2.80
2018-08-11T00:17:08.018Z,1.87
2018-08-11T00:19:36.175Z,2.60
2018-08-11T00:22:04.614Z,3.63
2018-08-11T00:24:32.793Z,5.70
2018-08-11T00:27:00.979Z,1.40
2018-08-11T00:29:29.157Z,1.50
2018-08-11T00:31:57.346Z,5.53
2018-08-11T00:34:25.515Z,6.43
2018-08-11T00:36:53.690Z,1.37
2018-08-11T00:39:21.862Z,3.73
2018-08-11T00:41:50.033Z,1.67
2018-08-11T00:44:18.238Z,1.90
2018-08-11T00:46:46.427Z,1.30
2018-08-11T00:49:14.643Z,1.63
2018-08-11T00:51:42.837Z,2.50
2018-08-11T00:54:11.058Z,1.50
2018-08-11T00:56:39.242Z,1.03
2018-08-11T00:59:07.473Z,8.73
2018-08-11T01:01:35.638Z,1.87
2018-08-11T01:04:03.799Z,0.80
2018-08-11T01:06:31.976Z,1.53
2018-08-11T01:09:00.135Z,1.00
2018-08-11T01:11:28.317Z,0.90
2018-08-11T01:13:56.509Z,1.23
2018-08-11T01:16:24.665Z,0.80
2018-08-11T01:18:52.832Z,0.60
2018-08-11T01:21:21.012Z,1.00
2018-08-11T01:23:49.218Z,0.90
2018-08-11T01:26:17.385Z,2.87
2018-08-11T01:28:45.562Z,2.70
2018-08-11T01:31:13.806Z,1.47
2018-08-11T01:33:41.985Z,2.07
2018-08-11T01:36:10.138Z,1.10
2018-08-11T01:38:38.444Z,2.23
2018-08-11T01:41:06.647Z,1.67
2018-08-11T01:43:34.825Z,0.67
2018-08-11T01:46:03.016Z,0.80
2018-08-11T01:48:31.201Z,0.80
2018-08-11T01:50:59.363Z,0.67
2018-08-11T01:53:27.537Z,0.90
2018-08-11T01:55:55.699Z,1.53
2018-08-11T01:58:23.886Z,1.10
2018-08-11T02:00:52.100Z,1.20
2018-08-11T02:03:20.284Z,0.70
2018-08-11T02:05:48.453Z,2.00
2018-08-11T02:08:16.626Z,1.40
2018-08-11T02:10:44.781Z,0.90
2018-08-11T02:13:12.982Z,1.13
2018-08-11T02:15:41.135Z,8.37
2018-08-11T02:18:09.317Z,1.30
2018-08-11T02:20:37.474Z,0.83
2018-08-11T02:23:05.951Z,1.73
2018-08-11T02:25:34.102Z,0.90
2018-08-11T02:28:02.282Z,1.20
2018-08-11T02:30:30.458Z,0.70
2018-08-11T02:32:58.618Z,1.20
2018-08-11T02:35:26.770Z,1.67
2018-08-11T02:37:54.942Z,0.70
2018-08-11T02:40:23.113Z,1.23
2018-08-11T02:42:51.382Z,1.70
2018-08-11T02:45:19.530Z,0.80
2018-08-11T02:47:47.930Z,1.23
2018-08-11T02:50:16.133Z,1.00
2018-08-11T02:52:44.317Z,0.70
2018-08-11T02:55:12.581Z,0.70
2018-08-11T02:57:40.737Z,1.07
2018-08-11T03:00:10.666Z,1.00
2018-08-11T03:02:38.836Z,1.40
2018-08-11T03:05:07.003Z,0.93
2018-08-11T03:07:35.358Z,1.40
2018-08-11T03:10:03.936Z,2.00
2018-08-11T03:12:32.081Z,1.67
2018-08-11T03:15:00.241Z,1.57
2018-08-11T03:17:28.410Z,2.77
2018-08-11T03:19:56.606Z,2.93
2018-08-11T03:22:24.775Z,2.20
2018-08-11T03:24:52.941Z,2.80
2018-08-11T03:27:21.108Z,7.63
2018-08-11T03:29:49.334Z,3.60
2018-08-11T03:32:17.551Z,6.17
2018-08-11T03:34:45.745Z,4.50
2018-08-11T03:37:13.906Z,4.60
2018-08-11T03:39:42.124Z,4.20
2018-08-11T03:42:10.297Z,5.10
2018-08-11T03:44:38.716Z,4.23
2018-08-11T03:47:06.931Z,5.03
2018-08-11T03:49:35.140Z,5.53
2018-08-11T03:52:03.461Z,11.07
2018-08-11T03:54:31.652Z,10.83
2018-08-11T03:56:59.813Z,8.37
2018-08-11T03:59:27.977Z,7.30
2018-08-11T04:01:56.172Z,10.20
2018-08-11T04:04:24.333Z,12.30
2018-08-11T04:06:52.502Z,10.47
2018-08-11T04:09:20.753Z,11.40
2018-08-11T04:11:48.944Z,9.47
2018-08-11T04:14:17.104Z,8.80
2018-08-11T04:16:45.361Z,6.37
2018-08-11T04:19:13.517Z,6.27
2018-08-11T04:21:41.711Z,7.40
2018-08-11T04:24:10.521Z,5.10
2018-08-11T04:26:38.901Z,3.97
2018-08-11T04:29:07.409Z,4.10
2018-08-11T04:31:35.760Z,2.80
2018-08-11T04:34:03.974Z,9.23
2018-08-11T04:36:32.315Z,4.93
2018-08-11T04:39:00.494Z,4.40
2018-08-11T04:41:28.665Z,5.53
2018-08-11T04:43:56.877Z,3.07
2018-08-11T04:46:25.099Z,5.20
2018-08-11T04:48:53.273Z,7.13
2018-08-11T04:51:21.466Z,4.50
2018-08-11T04:53:49.638Z,4.43
2018-08-11T04:56:17.925Z,4.90
2018-08-11T04:58:46.122Z,4.30
2018-08-11T05:01:14.340Z,3.70
2018-08-11T05:03:42.594Z,5.13
2018-08-11T05:06:10.769Z,3.43
2018-08-11T05:08:38.964Z,3.73
2018-08-11T05:11:07.178Z,3.50
2018-08-11T05:13:35.349Z,2.77
2018-08-11T05:16:03.519Z,5.20
2018-08-11T05:18:31.666Z,5.33
2018-08-11T05:20:59.842Z,3.27
2018-08-11T05:23:28.023Z,6.50
2018-08-11T05:25:56.204Z,7.03
2018-08-11T05:28:24.382Z,4.20
2018-08-11T05:30:52.575Z,7.53
2018-08-11T05:33:20.940Z,8.10
2018-08-11T05:35:48.925Z,8.50
2018-08-11T05:38:17.111Z,7.63
2018-08-11T05:40:45.556Z,10.20
2018-08-11T05:43:13.705Z,8.20
2018-08-11T05:45:41.905Z,10.37
2018-08-11T05:48:10.087Z,10.97
2018-08-11T05:50:38.258Z,8.33
2018-08-11T05:53:06.447Z,10.50
2018-08-11T05:55:34.626Z,14.03
2018-08-11T05:58:02.779Z,13.37
2018-08-11T06:00:30.954Z,17.17
2018-08-11T06:02:59.125Z,11.27
2018-08-11T06:05:27.314Z,13.73
2018-08-11T06:07:55.505Z,16.60
2018-08-11T06:10:23.751Z,16.03
2018-08-11T06:12:51.895Z,15.40
2018-08-11T06:15:20.066Z,13.20
2018-08-11T06:17:48.238Z,8.97
2018-08-11T06:20:16.410Z,12.50
2018-08-11T06:22:44.586Z,23.97
2018-08-11T06:25:12.793Z,16.53
2018-08-11T06:27:41.169Z,15.83
2018-08-11T06:30:10.153Z,16.00
2018-08-11T06:32:38.526Z,15.80
2018-08-11T06:35:07.116Z,16.33
2018-08-11T06:37:35.502Z,16.10
2018-08-11T06:40:03.758Z,17.40
2018-08-11T06:42:31.950Z,20.63
2018-08-11T06:45:00.139Z,14.90
2018-08-11T06:47:28.326Z,19.33
2018-08-11T06:49:56.561Z,19.20
2018-08-11T06:52:24.714Z,17.90
2018-08-11T06:54:52.997Z,21.50
2018-08-11T06:57:21.171Z,19.73
2018-08-11T06:59:49.353Z,18.10
2018-08-11T07:02:17.561Z,18.57
2018-08-11T07:04:45.749Z,19.20
2018-08-11T07:07:13.925Z,17.50
2018-08-11T07:09:42.118Z,15.43
2018-08-11T07:12:10.850Z,10.80
2018-08-11T07:14:39.080Z,20.23
2018-08-11T07:17:07.248Z,14.43
2018-08-11T07:19:35.453Z,15.77
2018-08-11T07:22:03.946Z,12.83
2018-08-11T07:24:32.101Z,13.40
2018-08-11T07:27:00.275Z,10.33
2018-08-11T07:29:28.461Z,11.30
2018-08-11T07:31:56.665Z,9.37
2018-08-11T07:34:24.810Z,9.97
2018-08-11T07:36:53.016Z,9.53
2018-08-11T07:39:21.191Z,9.40
2018-08-11T07:41:49.370Z,8.53
2018-08-11T07:44:17.557Z,8.70
2018-08-11T07:46:45.793Z,10.53
2018-08-11T07:49:13.954Z,8.80
2018-08-11T07:51:42.135Z,8.87
2018-08-11T07:54:10.299Z,6.50
2018-08-11T07:56:38.551Z,6.30
2018-08-11T07:59:06.898Z,6.00
2018-08-11T08:01:35.110Z,5.43
2018-08-11T08:04:03.406Z,5.70
2018-08-11T08:06:31.582Z,10.70
2018-08-11T08:08:59.738Z,5.33
2018-08-11T08:11:27.922Z,4.47
2018-08-11T08:13:56.126Z,7.47
2018-08-11T08:16:24.285Z,4.33
2018-08-11T08:18:52.461Z,4.27
2018-08-11T08:21:20.631Z,3.10
2018-08-11T08:23:48.868Z,4.20
2018-08-11T08:26:17.111Z,4.70
2018-08-11T08:28:45.237Z,6.13
2018-08-11T08:31:13.430Z,5.40
2018-08-11T08:33:41.612Z,4.30
2018-08-11T08:36:09.803Z,4.30
2018-08-11T08:38:37.957Z,5.20
2018-08-11T08:41:06.141Z,5.40
2018-08-11T08:43:34.318Z,3.00
2018-08-11T08:46:02.519Z,4.70
2018-08-11T08:48:30.679Z,2.47
2018-08-11T08:50:58.846Z,7.50
2018-08-11T08:53:27.028Z,2.77
2018-08-11T08:55:55.190Z,2.77
2018-08-11T08:58:23.445Z,2.93
2018-08-11T09:00:51.597Z,3.00
2018-08-11T09:03:19.798Z,2.83
2018-08-11T09:05:47.982Z,3.07
2018-08-11T09:08:16.267Z,2.87
2018-08-11T09:10:44.405Z,5.20
2018-08-11T09:13:12.562Z,4.83
2018-08-11T09:15:40.757Z,2.30
2018-08-11T09:18:08.949Z,2.50
2018-08-11T09:20:37.102Z,3.53
2018-08-11T09:23:05.434Z,4.03
2018-08-11T09:25:33.606Z,7.00
2018-08-11T09:28:01.781Z,4.50
2018-08-11T09:30:29.966Z,2.90
2018-08-11T09:32:58.157Z,5.67
2018-08-11T09:35:26.313Z,3.87
2018-08-11T09:37:54.474Z,1.60
2018-08-11T09:40:22.713Z,4.17
2018-08-11T09:42:50.903Z,4.20
2018-08-11T09:45:19.197Z,2.77
2018-08-11T09:47:47.459Z,3.47
2018-08-11T09:50:15.750Z,3.93
2018-08-11T09:52:44.117Z,4.33
2018-08-11T09:55:12.273Z,2.30
2018-08-11T09:57:40.438Z,1.97
2018-08-11T10:00:09.238Z,4.83
2018-08-11T10:02:37.406Z,4.43
2018-08-11T10:05:06.048Z,3.40
2018-08-11T10:07:34.203Z,4.00
2018-08-11T10:10:02.350Z,3.10
2018-08-11T10:12:30.742Z,2.60
2018-08-11T10:14:58.914Z,5.03
2018-08-11T10:17:27.062Z,3.60
2018-08-11T10:19:55.226Z,5.00
2018-08-11T10:22:23.373Z,3.73
2018-08-11T10:24:51.537Z,4.20
2018-08-11T10:27:19.684Z,4.17
2018-08-11T10:29:47.913Z,6.83
2018-08-11T10:32:16.066Z,2.33
2018-08-11T10:34:44.233Z,2.50
2018-08-11T10:37:12.398Z,4.63
2018-08-11T10:39:40.597Z,2.97
2018-08-11T10:42:08.746Z,2.10
2018-08-11T10:44:36.933Z,3.43
2018-08-11T10:47:05.197Z,4.97
2018-08-11T10:49:33.289Z,3.63
2018-08-11T10:52:01.474Z,2.63
2018-08-11T10:54:29.666Z,1.40
2018-08-11T10:56:57.895Z,2.93
2018-08-11T10:59:26.062Z,3.23
2018-08-11T11:01:54.250Z,2.90
2018-08-11T11:04:22.417Z,3.67
2018-08-11T11:06:50.598Z,3.63
2018-08-11T11:09:18.867Z,6.33
2018-08-11T11:11:47.070Z,2.73
2018-08-11T11:14:15.280Z,3.43
2018-08-11T11:16:43.413Z,5.47
2018-08-11T11:19:11.658Z,4.07
2018-08-11T11:21:39.822Z,2.30
2018-08-11T11:24:08.014Z,2.60
2018-08-11T11:26:36.170Z,1.57
2018-08-11T11:29:04.375Z,3.70
2018-08-11T11:31:32.557Z,2.00
2018-08-11T11:34:00.801Z,3.30
2018-08-11T11:36:28.971Z,3.67
2018-08-11T11:38:58.390Z,4.63
2018-08-11T11:41:26.552Z,2.60
2018-08-11T11:43:54.738Z,2.00
2018-08-11T11:46:22.933Z,3.97
2018-08-11T11:48:51.542Z,7.73
2018-08-11T11:51:19.699Z,3.43
2018-08-11T11:53:47.940Z,1.97
2018-08-11T11:56:16.163Z,2.43
2018-08-11T11:58:44.383Z,3.90
2018-08-11T12:01:12.562Z,3.53
2018-08-11T12:03:40.722Z,2.53
2018-08-11T12:06:08.957Z,4.03
2018-08-11T12:08:37.184Z,3.33
2018-08-11T12:11:05.455Z,1.53
2018-08-11T12:13:33.662Z,3.33
2018-08-11T12:16:01.857Z,3.43
2018-08-11T12:18:30.197Z,3.13
2018-08-11T12:20:58.357Z,2.67
2018-08-11T12:23:26.514Z,1.93
2018-08-11T12:25:54.674Z,1.50
2018-08-11T12:28:22.910Z,2.87
2018-08-11T12:30:51.097Z,1.90
2018-08-11T12:33:20.797Z,1.87
2018-08-11T12:35:49.461Z,3.60
2018-08-11T12:38:17.775Z,4.77
2018-08-11T12:40:45.925Z,4.53
2018-08-11T12:43:14.134Z,1.73
2018-08-11T12:45:42.334Z,2.00
2018-08-11T12:48:10.503Z,2.33
2018-08-11T12:50:38.662Z,2.03
2018-08-11T12:53:06.868Z,2.03
2018-08-11T12:55:35.044Z,4.63
2018-08-11T12:58:03.199Z,3.03
2018-08-11T13:00:31.559Z,1.90
2018-08-11T13:03:00.484Z,2.80
2018-08-11T13:05:28.682Z,3.90
2018-08-11T13:07:56.847Z,2.00
2018-08-11T13:10:25.722Z,2.10
2018-08-11T13:12:53.865Z,1.60
2018-08-11T13:15:22.064Z,1.50
2018-08-11T13:17:50.243Z,2.47
2018-08-11T13:20:18.478Z,2.63
2018-08-11T13:22:46.666Z,4.23
2018-08-11T13:25:14.870Z,2.60
2018-08-11T13:27:44.295Z,3.03
2018-08-11T13:30:12.973Z,6.80
2018-08-11T13:32:41.162Z,1.73
2018-08-11T13:35:09.338Z,5.17
2018-08-11T13:37:37.505Z,3.67
2018-08-11T13:40:06.022Z,2.33
2018-08-11T13:42:34.233Z,3.93
2018-08-11T13:45:02.433Z,4.00
2018-08-11T13:47:30.622Z,2.83
2018-08-11T13:49:58.851Z,3.23
2018-08-11T13:52:27.023Z,3.30
2018-08-11T13:54:55.193Z,2.47
2018-08-11T13:57:23.351Z,2.63
2018-08-11T13:59:51.598Z,2.17
2018-08-11T14:02:19.769Z,4.93
2018-08-11T14:04:47.986Z,2.93
2018-08-11T14:07:16.150Z,3.20
2018-08-11T14:09:44.370Z,1.87
2018-08-11T14:12:12.573Z,2.20
2018-08-11T14:14:40.751Z,1.97
2018-08-11T14:17:09.017Z,3.60
2018-08-11T14:19:37.172Z,3.67
2018-08-11T14:22:05.374Z,2.40
2018-08-11T14:24:33.558Z,4.10
2018-08-11T14:27:01.742Z,1.57
2018-08-11T14:29:29.974Z,2.07
2018-08-11T14:31:58.129Z,2.20
2018-08-11T14:34:26.372Z,3.50
2018-08-11T14:36:54.489Z,1.90
2018-08-11T14:39:23.190Z,2.77
2018-08-11T14:41:51.379Z,1.13
2018-08-11T14:44:19.654Z,6.43
2018-08-11T14:46:47.869Z,1.30
2018-08-11T14:49:16.062Z,2.60
2018-08-11T14:51:44.286Z,5.03
2018-08-11T14:54:12.434Z,1.33
2018-08-11T14:56:40.633Z,1.90
2018-08-11T14:59:08.923Z,4.20
2018-08-11T15:01:37.090Z,1.50
2018-08-11T15:04:05.301Z,1.83
2018-08-11T15:06:33.558Z,1.17
2018-08-11T15:09:01.737Z,2.70
2018-08-11T15:11:29.936Z,2.33
2018-08-11T15:13:58.119Z,0.90
2018-08-11T15:16:26.353Z,3.20
2018-08-11T15:18:54.526Z,0.80
2018-08-11T15:21:22.683Z,3.00
2018-08-11T15:23:50.858Z,3.17
2018-08-11T15:26:19.038Z,3.30
2018-08-11T15:28:48.001Z,1.70
2018-08-11T15:31:16.194Z,1.57
2018-08-11T15:33:44.370Z,2.40
2018-08-11T15:36:12.538Z,2.30
2018-08-11T15:38:40.893Z,2.57
2018-08-11T15:41:09.070Z,1.83
2018-08-11T15:43:37.233Z,6.33
2018-08-11T15:46:05.438Z,4.47
2018-08-11T15:48:40.461Z,3.40
2018-08-11T15:51:08.633Z,3.83
2018-08-11T15:53:36.829Z,2.33
2018-08-11T15:56:05.037Z,1.33
2018-08-11T15:58:33.187Z,9.70
2018-08-11T16:01:01.406Z,2.80
2018-08-11T16:03:29.629Z,2.90
2018-08-11T16:05:57.990Z,2.43
2018-08-11T16:08:26.161Z,1.20
2018-08-11T16:10:54.741Z,3.97
2018-08-11T16:13:22.990Z,2.10
2018-08-11T16:15:51.159Z,3.73
2018-08-11T16:18:19.413Z,2.10
2018-08-11T16:20:47.646Z,1.23
2018-08-11T16:23:15.801Z,3.37
2018-08-11T16:25:43.979Z,2.67
2018-08-11T16:28:12.145Z,1.63
2018-08-11T16:30:40.345Z,1.67
2018-08-11T16:33:08.513Z,1.10
2018-08-11T16:35:37.051Z,1.70
2018-08-11T16:38:05.523Z,1.10
2018-08-11T16:40:33.720Z,0.90
2018-08-11T16:43:01.890Z,1.47
2018-08-11T16:45:30.054Z,2.40
2018-08-11T16:47:58.328Z,1.97
2018-08-11T16:50:26.410Z,2.13
2018-08-11T16:52:54.600Z,1.40
2018-08-11T16:55:22.761Z,1.63
2018-08-11T16:57:50.988Z,1.37
2018-08-11T17:00:19.217Z,1.07
2018-08-11T17:02:47.662Z,1.47
2018-08-11T17:05:15.825Z,1.10
2018-08-11T17:07:44.074Z,1.40
2018-08-11T17:10:12.236Z,3.37
2018-08-11T17:12:40.627Z,1.43
2018-08-11T17:15:09.721Z,7.00
2018-08-11T17:17:37.960Z,1.27
2018-08-11T17:20:06.934Z,0.90
2018-08-11T17:22:35.113Z,1.37
2018-08-11T17:25:03.350Z,1.00
2018-08-11T17:27:31.516Z,2.70
2018-08-11T17:29:59.715Z,2.00
2018-08-11T17:32:27.954Z,0.90
2018-08-11T17:34:56.057Z,3.97
2018-08-11T17:37:24.237Z,1.50
2018-08-11T17:39:59.061Z,2.03
2018-08-11T17:42:27.256Z,2.37
2018-08-11T17:44:55.418Z,1.17
2018-08-11T17:47:23.626Z,1.70
2018-08-11T17:49:51.864Z,2.70
2018-08-11T17:52:20.062Z,1.77
2018-08-11T17:54:48.265Z,0.90
2018-08-11T17:57:16.398Z,2.37
2018-08-11T17:59:44.573Z,2.00
2018-08-11T18:02:12.753Z,0.93
2018-08-11T18:04:40.946Z,1.37
2018-08-11T18:07:09.123Z,2.37
2018-08-11T18:09:37.334Z,1.30
2018-08-11T18:12:05.498Z,3.60
2018-08-11T18:14:33.685Z,5.33
2018-08-11T18:17:01.906Z,1.50
2018-08-11T18:19:30.138Z,0.90
2018-08-11T18:21:58.373Z,2.03
2018-08-11T18:24:26.545Z,2.53
2018-08-11T18:26:54.725Z,1.40
2018-08-11T18:29:22.974Z,2.13
2018-08-11T18:31:51.154Z,4.87
2018-08-11T18:34:19.445Z,1.13
2018-08-11T18:36:47.617Z,2.33
2018-08-11T18:39:15.794Z,1.33
2018-08-11T18:41:44.274Z,1.10
2018-08-11T18:44:14.018Z,1.10
2018-08-11T18:46:42.277Z,3.70
2018-08-11T18:49:10.519Z,2.40
2018-08-11T18:51:38.674Z,2.83
2018-08-11T18:54:06.856Z,1.40
2018-08-11T18:56:35.065Z,3.33
2018-08-11T18:59:03.257Z,0.87
2018-08-11T19:01:31.447Z,1.10
2018-08-11T19:03:59.674Z,8.10
2018-08-11T19:06:28.198Z,1.63
2018-08-11T19:08:56.381Z,0.87
2018-08-11T19:11:24.578Z,1.00
2018-08-11T19:13:52.786Z,4.03
2018-08-11T19:16:20.949Z,1.00
2018-08-11T19:18:49.155Z,2.30
2018-08-11T19:21:17.330Z,4.83
2018-08-11T19:23:45.510Z,1.37
2018-08-11T19:26:13.721Z,4.03
2018-08-11T19:28:41.929Z,2.23
2018-08-11T19:31:11.213Z,7.80
2018-08-11T19:33:39.417Z,1.67
2018-08-11T19:36:07.634Z,2.50
2018-08-11T19:38:35.822Z,1.90
2018-08-11T19:41:04.037Z,2.30
2018-08-11T19:43:32.272Z,1.00
2018-08-11T19:46:00.515Z,3.57
2018-08-11T19:48:28.653Z,2.57
2018-08-11T19:50:56.845Z,2.27
2018-08-11T19:53:25.250Z,4.83
2018-08-11T19:55:53.487Z,1.77
2018-08-11T19:58:21.770Z,2.50
2018-08-11T20:00:49.942Z,2.17
2018-08-11T20:03:18.663Z,1.83
2018-08-11T20:05:46.855Z,2.33
2018-08-11T20:08:15.047Z,1.00
2018-08-11T20:10:43.275Z,6.53
2018-08-11T20:13:11.461Z,2.03
2018-08-11T20:15:39.663Z,2.00
2018-08-11T20:18:07.821Z,4.60
2018-08-11T20:20:36.023Z,2.47
2018-08-11T20:23:04.192Z,4.73
2018-08-11T20:25:32.539Z,2.40
2018-08-11T20:28:00.647Z,7.00
2018-08-11T20:30:28.842Z,1.90
2018-08-11T20:32:57.045Z,1.53
2018-08-11T20:35:25.193Z,1.70
2018-08-11T20:37:53.367Z,3.63
2018-08-11T20:40:21.539Z,1.40
2018-08-11T20:42:49.727Z,3.23
2018-08-11T20:45:17.905Z,2.50
2018-08-11T20:47:46.066Z,2.00
2018-08-11T20:50:14.254Z,3.07
2018-08-11T20:52:42.565Z,1.13
2018-08-11T20:55:10.757Z,5.63
2018-08-11T20:57:38.921Z,3.63
2018-08-11T21:00:09.442Z,3.00
2018-08-11T21:02:37.674Z,3.87
2018-08-11T21:05:08.348Z,3.13
2018-08-11T21:07:37.153Z,4.33
2018-08-11T21:10:07.250Z,3.07
2018-08-11T21:12:35.458Z,4.37
2018-08-11T21:15:03.706Z,2.97
2018-08-11T21:17:31.937Z,5.93
2018-08-11T21:20:00.098Z,4.30
2018-08-11T21:22:28.266Z,3.53
2018-08-11T21:24:56.485Z,3.97
2018-08-11T21:27:24.681Z,3.83
2018-08-11T21:29:52.841Z,3.07
2018-08-11T21:32:21.049Z,4.17
2018-08-11T21:34:49.937Z,5.67
2018-08-11T21:37:18.188Z,4.23
2018-08-11T21:39:46.333Z,3.60
2018-08-11T21:42:14.499Z,3.20
2018-08-11T21:44:42.654Z,3.20
2018-08-11T21:47:10.821Z,2.60
2018-08-11T21:49:39.042Z,3.03
2018-08-11T21:52:07.217Z,3.23
2018-08-11T21:54:35.409Z,5.03
2018-08-11T21:57:03.659Z,4.13
2018-08-11T21:59:31.837Z,5.40
2018-08-11T22:02:00.012Z,3.23
2018-08-11T22:04:35.294Z,3.73
2018-08-11T22:07:05.398Z,3.30
2018-08-11T22:09:33.558Z,3.53
2018-08-11T22:12:02.058Z,4.00
2018-08-11T22:14:30.272Z,4.07
2018-08-11T22:16:58.731Z,4.07
2018-08-11T22:19:26.954Z,3.17
2018-08-11T22:21:55.122Z,5.50
2018-08-11T22:24:23.425Z,2.53
2018-08-11T22:26:51.623Z,3.50
2018-08-11T22:29:19.839Z,2.53
2018-08-11T22:31:48.058Z,2.20
2018-08-11T22:34:16.221Z,2.80
2018-08-11T22:36:44.446Z,4.07
2018-08-11T22:39:12.598Z,3.83
2018-08-11T22:41:40.921Z,4.47
2018-08-11T22:44:09.079Z,3.43
2018-08-11T22:46:37.374Z,4.60
2018-08-11T22:49:05.673Z,2.17
2018-08-11T22:51:33.929Z,1.83
2018-08-11T22:54:02.094Z,2.53
2018-08-11T22:56:30.278Z,2.63
2018-08-11T22:58:58.502Z,3.20
2018-08-11T23:01:26.685Z,3.77
2018-08-11T23:03:54.993Z,2.70
2018-08-11T23:06:23.150Z,2.80
2018-08-11T23:08:51.314Z,1.87
2018-08-11T23:11:19.486Z,3.20
2018-08-11T23:13:47.918Z,5.00
2018-08-11T23:16:16.102Z,5.43
2018-08-11T23:18:44.285Z,2.17
2018-08-11T23:21:12.442Z,3.97
2018-08-11T23:23:40.625Z,2.43
2018-08-11T23:26:08.779Z,3.10
2018-08-11T23:28:36.941Z,3.33
2018-08-11T23:31:05.102Z,2.97
2018-08-11T23:33:33.287Z,6.03
2018-08-11T23:36:01.478Z,4.43
2018-08-11T23:38:29.616Z,2.20
2018-08-11T23:40:57.783Z,2.40
2018-08-11T23:43:25.955Z,3.37
2018-08-11T23:45:54.115Z,4.87
2018-08-11T23:48:22.356Z,2.33
2018-08-11T23:50:51.365Z,3.27
2018-08-11T23:53:19.581Z,2.57
2018-08-11T23:55:47.779Z,3.10
2018-08-11T23:58:15.957Z,4.93
